Terminal Aerodrome Forecast
Issued by NWS Aberdeen, SD

Home | Current Version | Previous Version | Text Only | Print | Product List | Glossary On
Versions: 1 2 3 4 5 6 7 8 9 10 11 12 13 14 15 16 17 18 19 20 21 22 23 24 25 26 27 28 29 30 31 32 33 34 35 36 37 38 39 40 41 42 43 44 45 46 47 48 49 50
000
FTUS43 KABR 191200 AAA
TAFABR
TAF AMD
KABR 191226Z 1912/2012 33020G30KT P6SM SCT025 OVC035
     FM191500 33025G35KT P6SM SCT040
     FM191900 32023G32KT P6SM VCSH BKN050
     FM200100 32017KT P6SM SKC=

USA.gov is the U.S. government's official web portal to all federal, state and local government web resources and services.